Time;durP1;ratioP1;P1;durP2;ratioP2;P2;SDS_P1;SDS_P2;PMS_P1;PMS_P2;Temp;Humidity;BMP_temperature;BMP_pressure;BME280_temperature;BME280_humidity;BME280_pressure;Samples;Min_cycle;Max_cycle;Signal;HPM_P1;HPM_P2
2023/04/23 00:01:27;;;;;;;4.00;3.73;;;10.10;99.90;;;;;;5062405;28;20441;-80
2023/04/23 00:03:58;;;;;;;5.17;3.30;;;10.10;99.90;;;;;;5064155;28;20537;-80
2023/04/23 00:06:25;;;;;;;4.40;4.00;;;10.10;99.90;;;;;;5062312;28;20903;-81
2023/04/23 00:08:54;;;;;;;3.37;3.07;;;10.10;99.90;;;;;;5053684;28;20511;-82
2023/04/23 00:11:21;;;;;;;6.80;3.60;;;10.10;99.90;;;;;;5059657;28;20442;-83
2023/04/23 00:13:49;;;;;;;5.17;4.77;;;10.10;99.90;;;;;;5053242;28;20528;-81
2023/04/23 00:16:16;;;;;;;7.93;3.60;;;10.10;99.90;;;;;;5061472;28;20444;-82
2023/04/23 00:18:43;;;;;;;4.17;3.70;;;10.10;99.90;;;;;;5061829;28;20457;-83
2023/04/23 00:21:12;;;;;;;4.53;4.13;;;10.10;99.90;;;;;;5063110;28;20835;-81
2023/04/23 00:23:39;;;;;;;4.53;4.10;;;10.10;99.90;;;;;;5053857;28;20556;-82
2023/04/23 00:26:06;;;;;;;4.47;3.30;;;10.10;99.90;;;;;;5065495;28;20527;-82
2023/04/23 00:28:33;;;;;;;3.30;3.07;;;10.10;99.90;;;;;;5063838;28;20521;-82
2023/04/23 00:31:01;;;;;;;4.87;4.47;;;10.10;99.90;;;;;;5060004;28;20505;-82
2023/04/23 00:33:28;;;;;;;4.83;4.37;;;10.10;99.90;;;;;;5060762;28;20457;-81
2023/04/23 00:35:55;;;;;;;8.87;5.00;;;10.00;99.90;;;;;;5062288;28;20444;-81
2023/04/23 00:38:25;;;;;;;5.40;4.90;;;10.00;99.90;;;;;;5057040;28;20460;-82
2023/04/23 00:40:52;;;;;;;5.80;5.30;;;9.90;99.90;;;;;;5049711;28;20445;-82
2023/04/23 00:43:19;;;;;;;6.70;4.60;;;9.90;99.90;;;;;;5054021;28;20496;-81
2023/04/23 00:45:47;;;;;;;3.80;3.47;;;9.90;99.90;;;;;;5059410;28;20464;-82
2023/04/23 00:48:14;;;;;;;4.60;4.30;;;9.90;99.90;;;;;;5058541;28;20444;-82
2023/04/23 00:50:42;;;;;;;5.30;4.90;;;9.80;99.90;;;;;;5060599;28;20521;-81
2023/04/23 00:53:09;;;;;;;5.03;4.53;;;9.90;99.90;;;;;;5058355;28;20813;-82
2023/04/23 00:55:37;;;;;;;6.80;3.87;;;9.80;99.90;;;;;;5056236;28;20455;-83
2023/04/23 00:58:05;;;;;;;4.37;3.90;;;9.80;99.90;;;;;;5053500;28;20872;-83
2023/04/23 01:00:34;;;;;;;4.00;3.67;;;9.70;99.90;;;;;;5059114;28;20472;-83
2023/04/23 01:03:01;;;;;;;5.00;4.50;;;9.70;99.90;;;;;;5051922;28;20483;-82
2023/04/23 01:05:28;;;;;;;4.37;3.97;;;9.70;99.90;;;;;;5064980;28;20452;-81
2023/04/23 01:07:55;;;;;;;4.13;3.73;;;9.80;99.90;;;;;;5061267;28;20436;-81
2023/04/23 01:10:22;;;;;;;3.07;2.77;;;9.80;99.90;;;;;;5066834;28;20493;-82
2023/04/23 01:12:51;;;;;;;3.67;2.80;;;9.80;99.90;;;;;;5059482;28;20457;-83
2023/04/23 01:15:18;;;;;;;3.17;2.87;;;9.80;99.90;;;;;;5063024;28;20549;-82
2023/04/23 01:17:45;;;;;;;4.47;3.30;;;9.70;99.90;;;;;;5056091;28;20437;-82
2023/04/23 01:20:12;;;;;;;8.30;4.10;;;9.70;99.90;;;;;;5056601;28;20453;-82
2023/04/23 01:22:40;;;;;;;4.27;3.87;;;9.70;99.90;;;;;;5057779;28;20476;-81
2023/04/23 01:25:09;;;;;;;2.70;2.50;;;9.60;99.90;;;;;;5058285;28;20440;-83
2023/04/23 01:27:37;;;;;;;5.07;3.87;;;9.60;99.90;;;;;;5056451;28;21080;-81
2023/04/23 01:30:06;;;;;;;3.67;3.00;;;9.60;99.90;;;;;;5051519;28;20437;-81
2023/04/23 01:32:33;;;;;;;2.87;2.70;;;9.50;99.90;;;;;;5054508;28;20451;-82
2023/04/23 01:35:01;;;;;;;3.67;3.37;;;9.60;99.90;;;;;;5067274;28;20521;-82
2023/04/23 01:37:30;;;;;;;3.37;2.90;;;9.60;99.90;;;;;;5051679;28;20472;-79
2023/04/23 01:39:59;;;;;;;2.57;2.30;;;9.50;99.90;;;;;;5062118;28;20437;-81
2023/04/23 01:42:26;;;;;;;2.60;2.40;;;9.50;99.90;;;;;;5067757;28;20988;-79
2023/04/23 01:44:54;;;;;;;3.00;2.80;;;9.40;99.90;;;;;;5079384;28;20495;-80
2023/04/23 01:47:22;;;;;;;3.23;2.97;;;9.30;99.90;;;;;;5067455;28;20449;-79
2023/04/23 01:49:49;;;;;;;6.53;3.00;;;9.40;99.90;;;;;;5055166;28;20445;-79
2023/04/23 01:52:17;;;;;;;4.30;3.27;;;9.30;99.90;;;;;;5061122;28;21130;-81
2023/04/23 01:54:44;;;;;;;3.33;2.80;;;9.30;99.90;;;;;;5062957;28;20865;-82
2023/04/23 01:57:13;;;;;;;3.70;3.30;;;9.20;99.90;;;;;;5064021;28;20464;-81
2023/04/23 01:59:40;;;;;;;4.83;3.80;;;9.20;99.90;;;;;;5061272;28;20451;-80
2023/04/23 02:02:09;;;;;;;4.90;4.40;;;9.20;99.90;;;;;;5062869;28;20507;-81
2023/04/23 02:04:38;;;;;;;4.63;4.23;;;9.20;99.90;;;;;;5064507;28;20482;-81
2023/04/23 02:07:05;;;;;;;4.87;4.47;;;9.20;99.90;;;;;;5061973;28;20443;-81
2023/04/23 02:09:32;;;;;;;4.77;4.37;;;9.20;99.90;;;;;;5063828;28;20441;-81
2023/04/23 02:12:00;;;;;;;8.50;4.63;;;9.20;99.90;;;;;;5063727;28;20798;-81
2023/04/23 02:14:29;;;;;;;4.40;4.00;;;9.20;99.90;;;;;;5054215;28;20539;-82
2023/04/23 02:16:56;;;;;;;4.57;3.67;;;9.20;99.90;;;;;;5054730;28;20512;-80
2023/04/23 02:19:23;;;;;;;4.67;4.27;;;9.10;99.90;;;;;;5057148;28;20967;-81
2023/04/23 02:21:50;;;;;;;5.43;4.93;;;9.00;99.90;;;;;;5057677;28;20474;-80
2023/04/23 02:24:17;;;;;;;3.63;3.33;;;8.90;99.90;;;;;;5053858;28;20547;-81
2023/04/23 02:26:44;;;;;;;4.70;4.20;;;8.80;99.90;;;;;;5053499;28;20429;-81
2023/04/23 02:29:11;;;;;;;5.33;3.50;;;8.80;99.90;;;;;;5060524;28;20440;-82
2023/04/23 02:31:39;;;;;;;18.33;5.80;;;8.80;99.90;;;;;;5061814;28;20498;-82
2023/04/23 02:34:07;;;;;;;4.17;3.53;;;8.70;99.90;;;;;;5064952;28;20452;-81
2023/04/23 02:36:34;;;;;;;6.47;3.20;;;8.80;99.90;;;;;;5059049;28;20556;-81
2023/04/23 02:39:01;;;;;;;5.03;4.53;;;8.90;99.90;;;;;;5065008;28;20489;-82
2023/04/23 02:41:28;;;;;;;7.03;3.40;;;9.00;99.90;;;;;;5067243;28;20981;-80
2023/04/23 02:43:55;;;;;;;2.83;2.63;;;9.10;99.90;;;;;;5064988;28;20504;-81
2023/04/23 02:46:22;;;;;;;3.87;3.57;;;9.20;99.90;;;;;;5054664;28;20530;-81
2023/04/23 02:48:50;;;;;;;3.90;3.40;;;9.20;99.90;;;;;;5060015;28;20492;-80
2023/04/23 02:51:17;;;;;;;3.10;2.80;;;9.30;99.90;;;;;;5061719;28;20525;-82
2023/04/23 02:53:44;;;;;;;3.87;3.13;;;9.30;99.90;;;;;;5056429;28;20453;-80
2023/04/23 02:56:11;;;;;;;2.93;2.73;;;9.50;99.90;;;;;;5069186;28;20444;-81
2023/04/23 02:58:38;;;;;;;4.97;3.00;;;9.60;99.90;;;;;;5064555;28;21444;-82
2023/04/23 03:01:05;;;;;;;5.20;2.60;;;9.80;99.90;;;;;;5066959;28;20440;-80
2023/04/23 03:03:33;;;;;;;3.20;2.90;;;9.80;99.90;;;;;;5062387;28;20482;-80
2023/04/23 03:06:02;;;;;;;3.47;3.17;;;9.80;99.90;;;;;;5062547;28;20465;-80
2023/04/23 03:08:29;;;;;;;3.10;2.80;;;9.80;99.90;;;;;;5061208;28;20468;-80
2023/04/23 03:10:56;;;;;;;2.90;2.60;;;9.90;99.90;;;;;;5061524;28;20798;-81
2023/04/23 03:13:23;;;;;;;3.60;3.40;;;9.90;99.90;;;;;;5055905;28;20453;-80
2023/04/23 03:15:51;;;;;;;3.50;2.50;;;10.00;99.90;;;;;;5058611;28;20465;-80
2023/04/23 03:18:18;;;;;;;4.53;2.73;;;10.00;99.90;;;;;;5055991;28;20441;-81
2023/04/23 03:20:45;;;;;;;3.23;2.40;;;10.10;99.90;;;;;;5058963;28;20519;-81
2023/04/23 03:23:14;;;;;;;2.17;2.07;;;10.10;99.90;;;;;;5062630;28;20526;-80
2023/04/23 03:25:41;;;;;;;2.57;2.37;;;10.20;99.90;;;;;;5062915;28;20444;-81
2023/04/23 03:28:08;;;;;;;2.87;2.67;;;10.20;99.90;;;;;;5064630;28;20510;-80
2023/04/23 03:30:35;;;;;;;2.33;2.13;;;10.20;99.90;;;;;;5058980;28;20468;-80
2023/04/23 03:33:02;;;;;;;2.40;2.20;;;10.20;99.90;;;;;;5062578;28;20460;-80
2023/04/23 03:35:29;;;;;;;3.17;2.97;;;10.20;99.90;;;;;;5075105;28;20464;-80
2023/04/23 03:37:56;;;;;;;2.67;2.13;;;10.20;99.90;;;;;;5080819;28;20442;-80
2023/04/23 03:40:25;;;;;;;2.63;2.23;;;10.20;99.90;;;;;;5077168;28;20460;-81
2023/04/23 03:42:52;;;;;;;2.10;1.90;;;10.20;99.90;;;;;;5059540;28;20475;-80
2023/04/23 03:45:19;;;;;;;3.30;3.00;;;10.20;99.90;;;;;;5067241;28;20441;-82
2023/04/23 03:47:46;;;;;;;1.83;1.73;;;10.10;99.90;;;;;;5066090;28;20732;-81
2023/04/23 03:50:13;;;;;;;2.73;2.37;;;10.10;99.90;;;;;;5054671;28;21175;-80
2023/04/23 03:52:40;;;;;;;3.53;2.50;;;10.10;99.90;;;;;;5067757;28;20456;-80
2023/04/23 03:55:08;;;;;;;4.00;3.70;;;10.20;99.90;;;;;;5062651;28;20893;-81
2023/04/23 03:57:37;;;;;;;3.93;3.53;;;10.20;99.90;;;;;;5064647;28;20546;-80
2023/04/23 04:00:07;;;;;;;6.50;4.60;;;10.20;99.90;;;;;;5052127;28;20984;-81
2023/04/23 04:02:34;;;;;;;5.40;3.47;;;10.20;99.90;;;;;;5054716;28;20457;-82
2023/04/23 04:05:01;;;;;;;3.17;2.63;;;10.10;99.90;;;;;;5055842;28;20465;-81
2023/04/23 04:07:28;;;;;;;3.30;3.10;;;10.10;99.90;;;;;;5059878;28;20449;-81
2023/04/23 04:09:55;;;;;;;2.70;2.50;;;10.10;99.90;;;;;;5067252;28;20448;-80
2023/04/23 04:12:22;;;;;;;3.40;3.10;;;10.10;99.90;;;;;;5060100;28;20503;-81
2023/04/23 04:14:51;;;;;;;4.37;4.00;;;10.30;99.90;;;;;;5056718;28;20456;-82
2023/04/23 04:17:18;;;;;;;4.03;3.27;;;10.40;99.90;;;;;;5056857;28;20444;-79
2023/04/23 04:19:45;;;;;;;3.27;2.73;;;10.40;99.90;;;;;;5053580;28;20445;-82
2023/04/23 04:22:12;;;;;;;2.13;1.97;;;10.50;99.90;;;;;;5066729;28;20523;-80
2023/04/23 04:24:40;;;;;;;3.20;2.87;;;10.50;99.90;;;;;;5050015;28;21029;-80
2023/04/23 04:27:07;;;;;;;2.77;2.57;;;10.60;99.90;;;;;;5059487;28;20457;-80
2023/04/23 04:29:35;;;;;;;3.00;2.57;;;10.50;99.90;;;;;;5063973;28;20448;-80
2023/04/23 04:32:04;;;;;;;6.30;2.73;;;10.50;99.90;;;;;;5064314;28;20445;-81
2023/04/23 04:34:31;;;;;;;2.83;2.63;;;10.50;99.90;;;;;;5062309;28;20971;-81
2023/04/23 04:36:58;;;;;;;3.40;3.10;;;10.30;99.90;;;;;;5064490;28;20537;-81
2023/04/23 04:39:25;;;;;;;3.87;3.33;;;10.50;99.90;;;;;;5061079;28;20514;-79
2023/04/23 04:41:52;;;;;;;3.67;3.37;;;10.40;99.90;;;;;;5065804;28;20464;-82
2023/04/23 04:44:20;;;;;;;6.27;3.13;;;10.30;99.90;;;;;;5061707;28;20526;-83
2023/04/23 04:46:47;;;;;;;3.73;2.63;;;10.20;99.90;;;;;;5061214;28;20464;-82
2023/04/23 04:49:18;;;;;;;3.50;3.20;;;10.10;99.90;;;;;;5054382;28;20464;-82
2023/04/23 04:51:45;;;;;;;3.00;2.80;;;10.00;99.90;;;;;;5064972;28;20491;-82
2023/04/23 04:54:12;;;;;;;2.93;2.67;;;10.00;99.90;;;;;;5057187;28;20553;-83
2023/04/23 04:56:40;;;;;;;3.20;3.00;;;10.10;99.90;;;;;;5048594;28;20457;-83
2023/04/23 04:59:07;;;;;;;3.90;2.90;;;10.20;99.90;;;;;;5065615;28;20570;-82
2023/04/23 05:01:34;;;;;;;3.13;2.93;;;10.40;99.90;;;;;;5063611;28;20507;-84
2023/04/23 05:04:01;;;;;;;3.00;2.80;;;10.60;99.90;;;;;;5052898;28;21181;-82
2023/04/23 05:06:31;;;;;;;4.33;3.60;;;10.60;99.90;;;;;;5064562;28;20934;-81
2023/04/23 05:08:58;;;;;;;2.90;2.53;;;10.70;99.90;;;;;;5060115;28;20441;-82
2023/04/23 05:11:25;;;;;;;4.13;3.73;;;10.80;99.90;;;;;;5060195;28;20460;-83
2023/04/23 05:13:52;;;;;;;3.87;2.77;;;11.00;99.90;;;;;;5062820;28;20445;-82
2023/04/23 05:16:20;;;;;;;3.87;3.57;;;11.20;99.90;;;;;;5052975;28;20502;-82
2023/04/23 05:18:47;;;;;;;4.83;2.80;;;11.40;99.90;;;;;;5053867;28;20444;-81
2023/04/23 05:21:15;;;;;;;4.23;3.60;;;11.60;99.90;;;;;;5066227;28;20497;-82
2023/04/23 05:23:43;;;;;;;2.83;2.63;;;11.80;99.90;;;;;;5069316;28;20476;-82
2023/04/23 05:26:10;;;;;;;3.03;2.77;;;11.80;99.90;;;;;;5061200;28;20542;-82
2023/04/23 05:28:37;;;;;;;3.27;2.40;;;12.00;99.90;;;;;;5063366;28;20467;-81
2023/04/23 05:31:04;;;;;;;3.17;2.90;;;12.10;99.90;;;;;;5059802;28;20944;-80
2023/04/23 05:33:31;;;;;;;2.77;2.40;;;12.30;99.90;;;;;;5055815;28;20503;-81
2023/04/23 05:35:58;;;;;;;2.53;2.23;;;12.60;99.90;;;;;;5059281;28;20444;-81
2023/04/23 05:38:25;;;;;;;4.17;2.33;;;12.70;99.90;;;;;;5056765;28;20457;-81
2023/04/23 05:40:54;;;;;;;4.90;2.50;;;13.00;99.90;;;;;;5062080;28;20479;-81
2023/04/23 05:43:21;;;;;;;3.23;3.00;;;13.30;99.90;;;;;;5058270;28;20530;-81
2023/04/23 05:45:48;;;;;;;2.70;2.50;;;13.50;99.90;;;;;;5055035;28;20509;-81
2023/04/23 05:48:15;;;;;;;2.47;2.30;;;13.70;99.90;;;;;;5065267;28;20474;-81
2023/04/23 05:50:42;;;;;;;2.37;2.23;;;13.80;99.90;;;;;;5060454;28;20464;-80
2023/04/23 05:53:09;;;;;;;6.43;2.70;;;13.60;99.90;;;;;;5056814;28;20445;-81
2023/04/23 05:55:36;;;;;;;5.00;2.50;;;13.50;99.90;;;;;;5053382;28;21153;-81
2023/04/23 05:58:05;;;;;;;2.23;1.97;;;13.60;99.90;;;;;;5051595;28;20987;-82
2023/04/23 06:00:34;;;;;;;2.17;1.93;;;13.40;99.90;;;;;;5057609;28;20471;-82
2023/04/23 06:03:01;;;;;;;3.00;2.70;;;13.50;99.90;;;;;;5054124;28;21264;-81
2023/04/23 06:05:28;;;;;;;1.73;1.63;;;13.40;99.90;;;;;;5062380;28;20541;-81
2023/04/23 06:07:55;;;;;;;2.90;2.27;;;13.50;99.90;;;;;;5063202;28;20445;-81
2023/04/23 06:10:22;;;;;;;2.53;2.20;;;13.40;99.90;;;;;;5063641;28;20464;-82
2023/04/23 06:12:48;;;;;;;2.40;2.17;;;13.70;99.90;;;;;;5058865;28;20472;-79
2023/04/23 06:15:17;;;;;;;6.03;1.97;;;13.90;99.90;;;;;;5070761;28;20502;-78
2023/04/23 06:17:44;;;;;;;2.73;2.53;;;14.30;99.90;;;;;;5057815;28;20460;-79
2023/04/23 06:20:11;;;;;;;2.70;2.50;;;14.40;99.90;;;;;;5062818;28;21364;-79
2023/04/23 06:22:38;;;;;;;3.17;2.97;;;14.50;99.90;;;;;;5064712;28;20975;-78
2023/04/23 06:25:06;;;;;;;3.80;3.33;;;15.00;99.90;;;;;;5065651;28;20474;-79
2023/04/23 06:27:33;;;;;;;4.33;3.53;;;15.40;99.90;;;;;;5062373;28;20453;-79
2023/04/23 06:30:00;;;;;;;3.40;3.17;;;15.50;99.90;;;;;;5070645;28;20455;-79
2023/04/23 06:32:28;;;;;;;3.13;2.57;;;15.50;99.90;;;;;;5065011;28;20446;-79
2023/04/23 06:34:55;;;;;;;6.37;3.10;;;15.60;99.90;;;;;;5059883;28;20526;-80
2023/04/23 06:37:22;;;;;;;4.97;3.17;;;15.70;99.90;;;;;;5064055;28;20460;-81
2023/04/23 06:39:49;;;;;;;4.07;3.20;;;15.80;99.90;;;;;;5065192;28;20456;-81
2023/04/23 06:42:16;;;;;;;3.33;3.13;;;15.80;99.90;;;;;;5064969;28;21094;-79
2023/04/23 06:44:45;;;;;;;5.33;2.83;;;15.60;99.90;;;;;;5064889;28;20538;-80
2023/04/23 06:47:12;;;;;;;5.03;3.60;;;15.50;99.90;;;;;;5054865;28;20539;-79
2023/04/23 06:49:41;;;;;;;2.77;2.50;;;15.60;99.90;;;;;;5066357;28;20621;-78
2023/04/23 06:52:08;;;;;;;3.13;2.87;;;15.20;99.90;;;;;;5065913;28;20965;-78
2023/04/23 06:54:35;;;;;;;3.83;3.00;;;15.00;99.90;;;;;;5054462;28;20440;-78
2023/04/23 06:57:02;;;;;;;3.23;3.03;;;14.90;99.90;;;;;;5062972;28;20537;-79
2023/04/23 06:59:29;;;;;;;2.30;2.20;;;15.10;99.90;;;;;;5060137;28;20926;-78
2023/04/23 07:01:56;;;;;;;3.40;3.10;;;15.20;99.90;;;;;;5066348;28;20464;-79
2023/04/23 07:04:23;;;;;;;3.50;3.30;;;15.00;99.90;;;;;;5060918;28;20512;-78
2023/04/23 07:06:51;;;;;;;3.73;3.40;;;15.00;99.90;;;;;;5061581;28;20517;-79
2023/04/23 07:09:18;;;;;;;5.03;4.50;;;14.70;99.90;;;;;;5063843;28;20479;-79
2023/04/23 07:11:45;;;;;;;3.80;3.50;;;14.90;99.90;;;;;;5061915;28;20456;-78
2023/04/23 07:14:12;;;;;;;3.50;3.20;;;15.10;99.90;;;;;;5064251;28;20812;-79
2023/04/23 07:16:39;;;;;;;4.50;4.10;;;15.30;99.90;;;;;;5070746;28;20464;-79
2023/04/23 07:19:06;;;;;;;6.70;3.80;;;15.40;99.90;;;;;;5073069;28;20538;-79
2023/04/23 07:21:33;;;;;;;3.77;2.93;;;15.70;99.90;;;;;;5076213;28;20452;-79
2023/04/23 07:24:05;;;;;;;4.00;3.63;;;15.50;99.90;;;;;;5067764;28;20537;-79
2023/04/23 07:26:32;;;;;;;5.00;3.80;;;15.60;99.90;;;;;;5070510;28;20498;-79
2023/04/23 07:29:00;;;;;;;2.70;2.50;;;16.10;99.90;;;;;;5066565;28;20892;-79
2023/04/23 07:31:27;;;;;;;4.03;3.17;;;16.10;99.90;;;;;;5067655;28;20471;-79
2023/04/23 07:33:54;;;;;;;3.57;3.37;;;16.20;99.90;;;;;;5068132;28;20518;-78
2023/04/23 07:36:21;;;;;;;4.10;2.93;;;16.40;99.90;;;;;;5064259;28;21158;-79
2023/04/23 07:38:48;;;;;;;3.30;3.10;;;17.10;99.90;;;;;;5065510;28;20504;-79
2023/04/23 07:41:16;;;;;;;3.97;3.53;;;17.00;99.90;;;;;;5063748;28;20465;-79
2023/04/23 07:43:43;;;;;;;4.40;3.90;;;17.20;99.90;;;;;;5064235;28;20453;-81
2023/04/23 07:46:10;;;;;;;4.00;3.60;;;17.00;99.90;;;;;;5059397;28;20519;-78
2023/04/23 07:48:37;;;;;;;12.33;4.20;;;17.20;99.90;;;;;;5058346;28;21171;-79
2023/04/23 07:51:05;;;;;;;3.80;3.50;;;17.20;99.90;;;;;;5062490;28;20951;-78
2023/04/23 07:53:32;;;;;;;3.77;3.47;;;17.20;99.90;;;;;;5054047;28;20453;-79
2023/04/23 07:55:59;;;;;;;3.80;3.50;;;17.40;99.90;;;;;;5059363;28;20458;-78
2023/04/23 07:58:27;;;;;;;4.60;4.27;;;17.80;99.80;;;;;;5068015;28;20977;-78
2023/04/23 08:00:54;;;;;;;4.53;4.20;;;18.00;99.90;;;;;;5063692;28;20547;-78
2023/04/23 08:03:22;;;;;;;4.30;3.90;;;17.70;98.90;;;;;;5061922;28;20502;-79
2023/04/23 08:05:50;;;;;;;3.83;3.50;;;17.70;98.60;;;;;;5065461;28;20479;-79
2023/04/23 08:08:16;;;;;;;4.83;4.43;;;17.70;97.90;;;;;;5052101;28;20495;-78
2023/04/23 08:10:43;;;;;;;4.07;3.70;;;18.00;95.30;;;;;;5063735;28;20466;-79
2023/04/23 08:13:11;;;;;;;4.83;4.43;;;18.20;96.70;;;;;;5059456;28;20460;-79
2023/04/23 08:15:39;;;;;;;5.30;4.10;;;18.30;94.50;;;;;;5063786;28;20474;-79
2023/04/23 08:18:06;;;;;;;6.63;4.70;;;18.50;96.70;;;;;;5070993;28;20444;-79
2023/04/23 08:20:34;;;;;;;3.30;3.00;;;18.70;95.50;;;;;;5079598;28;20521;-79
2023/04/23 08:23:01;;;;;;;3.23;3.03;;;19.00;96.30;;;;;;5072070;28;20502;-78
2023/04/23 08:25:28;;;;;;;4.97;3.57;;;18.90;95.20;;;;;;5064728;28;20541;-79
2023/04/23 08:27:54;;;;;;;3.80;3.53;;;18.70;96.80;;;;;;5066703;28;20486;-78
2023/04/23 08:30:22;;;;;;;5.40;4.67;;;18.50;97.40;;;;;;5065127;28;21007;-79
2023/04/23 08:32:52;;;;;;;5.33;4.40;;;18.50;96.30;;;;;;5066132;28;20468;-78
2023/04/23 08:35:19;;;;;;;4.93;4.40;;;18.20;96.90;;;;;;5057261;28;20468;-78
2023/04/23 08:37:46;;;;;;;4.97;4.50;;;18.40;96.50;;;;;;5063754;28;20472;-78
2023/04/23 08:40:13;;;;;;;4.80;4.43;;;18.60;95.90;;;;;;5059805;28;20447;-79
2023/04/23 08:42:43;;;;;;;4.60;4.20;;;18.70;95.90;;;;;;5061968;28;20459;-79
2023/04/23 08:45:11;;;;;;;4.33;4.00;;;19.00;97.30;;;;;;5056918;28;20487;-78
2023/04/23 08:47:41;;;;;;;3.87;3.57;;;18.80;96.30;;;;;;5061784;28;20440;-79
2023/04/23 08:50:12;;;;;;;3.40;3.03;;;18.60;94.00;;;;;;5061427;28;20467;-79
2023/04/23 08:52:42;;;;;;;4.77;4.37;;;18.40;93.10;;;;;;5064342;28;20472;-79
2023/04/23 08:55:10;;;;;;;5.13;3.43;;;18.70;94.80;;;;;;5061428;28;20468;-79
2023/04/23 08:57:40;;;;;;;4.43;2.87;;;18.80;94.50;;;;;;5059509;28;21857;-78
2023/04/23 09:00:09;;;;;;;4.00;3.60;;;18.80;95.30;;;;;;5063556;28;20483;-79
2023/04/23 09:02:36;;;;;;;3.73;3.53;;;18.70;93.00;;;;;;5064998;28;20464;-78
2023/04/23 09:05:04;;;;;;;4.40;4.00;;;18.70;95.10;;;;;;5065131;28;20496;-79
2023/04/23 09:07:34;;;;;;;4.33;4.03;;;18.60;95.60;;;;;;5057047;28;20444;-78
2023/04/23 09:10:01;;;;;;;5.67;4.40;;;18.80;94.40;;;;;;5057653;28;20467;-81
2023/04/23 09:12:28;;;;;;;4.30;4.00;;;18.80;96.80;;;;;;5050243;28;20453;-80
2023/04/23 09:14:55;;;;;;;5.87;4.77;;;18.90;93.80;;;;;;5061386;28;20500;-81
2023/04/23 09:17:23;;;;;;;6.23;4.80;;;18.80;94.30;;;;;;5063221;28;20498;-80
2023/04/23 09:19:51;;;;;;;5.10;4.70;;;18.90;93.80;;;;;;5061980;28;20464;-80
2023/04/23 09:22:38;;;;;;;5.83;5.33;;;19.00;93.20;;;;;;5050761;28;20472;-80
2023/04/23 09:25:06;;;;;;;4.47;4.07;;;19.20;92.10;;;;;;5056280;28;20479;-80
2023/04/23 09:27:33;;;;;;;4.23;3.97;;;19.30;92.30;;;;;;5057975;28;20473;-80
2023/04/23 09:30:03;;;;;;;6.77;5.10;;;19.10;94.30;;;;;;5054675;28;20497;-80
2023/04/23 09:32:32;;;;;;;6.73;3.50;;;19.20;94.10;;;;;;5056966;28;20449;-80
2023/04/23 09:35:01;;;;;;;5.70;3.80;;;19.40;91.90;;;;;;5055058;28;20535;-80
2023/04/23 09:37:29;;;;;;;4.07;3.67;;;19.70;92.00;;;;;;5061012;28;21008;-80
2023/04/23 09:39:59;;;;;;;3.77;3.00;;;19.60;90.50;;;;;;5057293;28;20491;-80
2023/04/23 09:42:27;;;;;;;4.47;4.17;;;19.70;86.90;;;;;;5063854;28;21025;-80
2023/04/23 09:44:57;;;;;;;4.30;4.00;;;19.80;86.50;;;;;;5055687;28;20492;-80
2023/04/23 09:47:24;;;;;;;5.77;3.87;;;19.80;86.90;;;;;;5058393;28;20534;-80
2023/04/23 09:49:51;;;;;;;3.83;3.53;;;19.90;92.00;;;;;;5061787;28;20452;-80
2023/04/23 09:52:19;;;;;;;4.10;3.37;;;20.10;91.00;;;;;;5057715;28;20464;-80
2023/04/23 09:54:47;;;;;;;3.90;3.60;;;20.20;86.00;;;;;;5061234;28;20457;-81
2023/04/23 09:57:15;;;;;;;3.57;3.33;;;20.30;89.30;;;;;;5048256;28;20453;-80
2023/04/23 09:59:44;;;;;;;3.37;3.07;;;20.40;86.20;;;;;;5064277;28;20968;-80
2023/04/23 10:02:11;;;;;;;4.07;2.90;;;20.40;84.10;;;;;;5060690;28;20464;-81
2023/04/23 10:04:39;;;;;;;3.93;3.53;;;20.70;80.80;;;;;;5061997;28;20455;-81
2023/04/23 10:07:12;;;;;;;3.37;3.10;;;20.70;83.50;;;;;;5061580;28;20448;-81
2023/04/23 10:09:40;;;;;;;6.17;3.83;;;21.10;80.80;;;;;;5056315;28;20854;-81
2023/04/23 10:12:08;;;;;;;3.77;3.00;;;21.40;77.50;;;;;;5063318;28;20468;-81
2023/04/23 10:14:38;;;;;;;2.90;2.67;;;21.20;72.20;;;;;;5061007;28;20517;-81
2023/04/23 10:17:05;;;;;;;8.07;7.27;;;21.30;71.60;;;;;;5054243;28;20816;-81
2023/04/23 10:19:33;;;;;;;7.40;5.20;;;21.30;73.90;;;;;;5062696;28;20460;-81
2023/04/23 10:22:04;;;;;;;5.63;3.47;;;21.50;74.60;;;;;;5057692;28;20460;-81
2023/04/23 10:24:33;;;;;;;5.27;4.77;;;21.00;70.10;;;;;;5068955;28;20538;-81
2023/04/23 10:27:03;;;;;;;3.50;3.20;;;21.20;69.00;;;;;;5057768;28;20567;-80
2023/04/23 10:29:31;;;;;;;3.43;3.13;;;21.50;79.80;;;;;;5050917;28;20453;-81
2023/04/23 10:32:01;;;;;;;3.27;3.07;;;21.80;75.60;;;;;;5057728;28;20837;-81
2023/04/23 10:34:29;;;;;;;3.47;3.27;;;21.50;69.50;;;;;;5061352;28;20974;-81
2023/04/23 10:36:58;;;;;;;2.80;2.60;;;21.40;73.80;;;;;;5061570;28;20463;-81
2023/04/23 10:39:27;;;;;;;3.40;2.80;;;21.70;69.20;;;;;;5050847;28;21053;-81
2023/04/23 10:41:55;;;;;;;5.57;3.00;;;21.60;72.50;;;;;;5062328;28;20468;-81
2023/04/23 10:44:22;;;;;;;2.10;1.80;;;21.70;67.40;;;;;;5049879;28;20950;-81
2023/04/23 10:46:55;;;;;;;2.80;2.13;;;21.80;64.30;;;;;;5062222;28;20483;-81
2023/04/23 10:49:25;;;;;;;1.33;0.87;;;21.90;58.10;;;;;;5053179;28;20432;-81
2023/04/23 10:51:59;;;;;;;2.10;1.77;;;22.10;55.70;;;;;;5056788;28;20942;-81
2023/04/23 10:54:29;;;;;;;3.70;2.13;;;22.00;58.90;;;;;;5060949;28;20601;-79
2023/04/23 10:57:00;;;;;;;2.97;2.77;;;22.10;60.20;;;;;;5056867;28;20465;-79
2023/04/23 10:59:29;;;;;;;3.73;2.53;;;22.20;62.80;;;;;;5046091;28;20498;-79
2023/04/23 11:01:58;;;;;;;2.03;1.83;;;22.30;60.50;;;;;;5058669;28;20456;-79
2023/04/23 11:04:28;;;;;;;2.10;1.97;;;22.00;60.00;;;;;;5061594;28;20469;-81
2023/04/23 11:06:57;;;;;;;2.10;1.90;;;21.90;61.60;;;;;;5068273;28;20857;-80
2023/04/23 11:09:32;;;;;;;3.27;2.80;;;21.60;60.90;;;;;;5069424;28;20452;-81
2023/04/23 11:12:00;;;;;;;2.23;1.80;;;21.00;61.40;;;;;;5071465;28;20464;-81
2023/04/23 11:14:36;;;;;;;4.50;1.90;;;21.40;63.20;;;;;;5066535;28;20503;-82
2023/04/23 11:17:04;;;;;;;1.97;1.43;;;21.20;68.00;;;;;;5052316;28;20860;-81
2023/04/23 11:19:35;;;;;;;1.20;1.10;;;21.40;66.30;;;;;;5058581;28;20465;-81
2023/04/23 11:22:06;;;;;;;2.33;1.70;;;21.50;68.10;;;;;;5053356;28;20468;-81
2023/04/23 11:24:40;;;;;;;1.90;1.80;;;21.40;63.00;;;;;;5063146;28;20457;-81
2023/04/23 11:27:09;;;;;;;1.80;1.70;;;21.50;64.50;;;;;;5066637;28;20507;-81
2023/04/23 11:29:37;;;;;;;3.30;2.20;;;21.30;62.80;;;;;;5071112;28;20483;-82
2023/04/23 11:32:09;;;;;;;1.50;1.40;;;21.40;62.10;;;;;;5072931;28;20459;-82
2023/04/23 11:34:39;;;;;;;4.87;1.20;;;21.20;59.60;;;;;;5064642;28;20522;-82
2023/04/23 11:37:09;;;;;;;1.40;1.30;;;21.30;61.60;;;;;;5062628;28;20460;-82
2023/04/23 11:39:36;;;;;;;1.77;1.00;;;21.40;59.80;;;;;;5065479;28;20437;-82
2023/04/23 11:42:04;;;;;;;1.10;1.00;;;20.90;61.10;;;;;;5065174;28;20473;-82
2023/04/23 11:44:31;;;;;;;1.63;1.13;;;21.30;59.00;;;;;;5055620;28;20528;-80
2023/04/23 11:47:01;;;;;;;1.30;1.20;;;21.80;62.00;;;;;;5060995;28;20500;-80
2023/04/23 11:49:28;;;;;;;1.10;1.00;;;22.00;58.30;;;;;;5061888;28;20954;-80
2023/04/23 11:52:00;;;;;;;1.70;1.40;;;22.00;56.00;;;;;;5062875;28;20474;-80
2023/04/23 11:54:28;;;;;;;1.20;1.10;;;22.30;61.30;;;;;;5054092;28;20438;-80
2023/04/23 11:56:56;;;;;;;1.33;1.10;;;22.70;59.20;;;;;;5050271;28;20514;-80
2023/04/23 11:59:23;;;;;;;1.53;1.43;;;22.50;59.10;;;;;;5058672;28;21015;-79
2023/04/23 12:01:54;;;;;;;1.33;1.03;;;22.30;56.50;;;;;;5057489;28;20546;-80
2023/04/23 12:04:22;;;;;;;1.97;1.07;;;22.30;57.90;;;;;;5047887;28;20495;-80
2023/04/23 12:06:50;;;;;;;2.60;1.13;;;22.40;55.50;;;;;;5056751;28;20485;-80
2023/04/23 12:09:21;;;;;;;1.17;1.10;;;22.30;58.70;;;;;;5066003;28;20832;-80
2023/04/23 12:11:50;;;;;;;2.27;1.30;;;22.50;56.60;;;;;;5065792;28;20465;-80
2023/04/23 12:14:19;;;;;;;1.60;1.40;;;22.30;57.80;;;;;;5062793;28;20454;-80
2023/04/23 12:16:51;;;;;;;1.97;1.73;;;22.50;58.60;;;;;;5065246;28;20445;-80
2023/04/23 12:19:19;;;;;;;1.37;1.10;;;22.70;58.40;;;;;;5056605;28;20793;-80
2023/04/23 12:21:53;;;;;;;1.43;1.33;;;22.60;62.60;;;;;;5066792;28;20464;-80
2023/04/23 12:24:23;;;;;;;2.20;1.90;;;22.50;58.70;;;;;;5064743;28;20462;-79
2023/04/23 12:26:53;;;;;;;1.87;1.77;;;22.30;61.10;;;;;;5065444;28;20566;-79
2023/04/23 12:29:20;;;;;;;7.20;5.87;;;22.40;66.50;;;;;;5066542;28;20467;-80
2023/04/23 12:31:47;;;;;;;5.57;5.07;;;21.90;79.50;;;;;;5067021;28;20466;-80
2023/04/23 12:34:16;;;;;;;6.60;6.00;;;22.00;86.60;;;;;;5065884;28;20466;-80
2023/04/23 12:36:45;;;;;;;6.00;5.60;;;21.80;86.90;;;;;;5065479;28;20456;-79
2023/04/23 12:39:29;;;;;;;5.30;4.90;;;21.20;84.40;;;;;;5070237;28;20513;-82
2023/04/23 12:41:58;;;;;;;5.93;5.10;;;21.00;90.00;;;;;;5064564;28;20478;-82
2023/04/23 12:44:26;;;;;;;4.90;4.60;;;20.80;85.40;;;;;;5058347;28;20467;-82
2023/04/23 12:46:58;;;;;;;6.20;5.20;;;20.70;91.40;;;;;;5052718;28;20843;-82
2023/04/23 12:49:26;;;;;;;6.90;6.40;;;20.50;90.10;;;;;;5047436;28;20464;-82
2023/04/23 12:51:56;;;;;;;5.43;5.03;;;20.60;90.50;;;;;;5050548;28;20551;-82